Time;durP1;ratioP1;P1;durP2;ratioP2;P2;SDS_P1;SDS_P2;PMS_P1;PMS_P2;Temp;Humidity;BMP_temperature;BMP_pressure;BME280_temperature;BME280_humidity;BME280_pressure;Samples;Min_cycle;Max_cycle;Signal;HPM_P1;HPM_P2
2022/04/13 00:00:12;;;;;;;13.57;5.80;;;;;;;8.38;91.73;97708.72;5118592;28;20216;-77
2022/04/13 00:02:39;;;;;;;15.80;6.53;;;;;;;8.24;91.10;97699.75;5103618;28;20135;-77
2022/04/13 00:05:07;;;;;;;13.68;6.60;;;;;;;8.21;94.70;97697.66;5095236;28;20413;-79
2022/04/13 00:07:36;;;;;;;17.10;6.70;;;;;;;8.27;88.19;97690.31;5094573;28;20052;-77
2022/04/13 00:10:04;;;;;;;15.57;6.72;;;;;;;8.34;86.99;97699.59;5096981;28;20093;-77
2022/04/13 00:12:30;;;;;;;12.45;6.32;;;;;;;8.35;87.88;97700.41;5093858;28;20106;-78
2022/04/13 00:14:57;;;;;;;16.20;6.05;;;;;;;8.48;86.05;97694.22;5094649;28;20407;-78
2022/04/13 00:17:23;;;;;;;13.88;6.10;;;;;;;8.52;84.23;97690.63;5094176;28;20430;-78
2022/04/13 00:19:50;;;;;;;13.75;5.93;;;;;;;8.72;79.16;97697.53;5093604;28;20071;-78
2022/04/13 00:22:16;;;;;;;17.92;6.40;;;;;;;8.67;79.23;97686.84;5092301;28;20055;-78
2022/04/13 00:24:43;;;;;;;13.50;5.85;;;;;;;8.86;76.13;97676.69;5095846;28;20080;-78
2022/04/13 00:27:09;;;;;;;17.85;6.05;;;;;;;8.83;74.83;97676.53;5095341;28;20091;-78
2022/04/13 00:29:36;;;;;;;16.15;6.60;;;;;;;8.87;74.88;97675.63;5093114;28;20048;-77
2022/04/13 00:32:03;;;;;;;16.98;7.40;;;;;;;8.87;75.19;97672.13;5092104;28;20769;-77
2022/04/13 00:34:30;;;;;;;14.50;5.93;;;;;;;8.79;75.60;97670.94;5096523;28;20048;-78
2022/04/13 00:36:57;;;;;;;16.23;6.28;;;;;;;8.76;77.80;97672.31;5093614;28;20125;-78
2022/04/13 00:39:24;;;;;;;14.80;6.50;;;;;;;8.76;76.99;97680.44;5094748;28;20109;-78
2022/04/13 00:42:02;;;;;;;18.67;6.63;;;;;;;8.74;78.83;97684.53;5095119;28;20048;-78
2022/04/13 00:44:30;;;;;;;12.98;6.55;;;;;;;8.69;80.16;97674.66;5094156;28;20147;-77
2022/04/13 00:47:01;;;;;;;14.07;6.28;;;;;;;8.63;81.35;97678.53;5092524;28;20052;-77
2022/04/13 00:49:28;;;;;;;13.30;6.45;;;;;;;8.45;88.22;97682.13;5092500;28;20044;-77
2022/04/13 00:51:59;;;;;;;18.88;6.50;;;;;;;8.37;86.23;97685.53;5090410;28;20512;-76
2022/04/13 00:54:29;;;;;;;17.85;6.00;;;;;;;8.27;91.17;97679.53;5092749;28;20040;-76
2022/04/13 00:56:57;;;;;;;15.60;6.50;;;;;;;8.19;91.82;97686.38;5092980;28;20473;-76
2022/04/13 00:59:25;;;;;;;14.95;6.72;;;;;;;8.10;94.38;97678.16;5091092;28;20136;-78
2022/04/13 01:01:57;;;;;;;15.38;6.28;;;;;;;8.09;94.63;97679.28;5091916;28;20040;-76
2022/04/13 01:04:27;;;;;;;13.90;6.40;;;;;;;8.13;91.61;97676.78;5089890;28;20059;-78
2022/04/13 01:06:53;;;;;;;16.48;6.45;;;;;;;8.13;93.40;97672.19;5090985;28;20324;-77
2022/04/13 01:09:23;;;;;;;14.57;5.97;;;;;;;8.13;93.41;97679.47;5091292;28;20060;-78
2022/04/13 01:11:49;;;;;;;15.77;6.63;;;;;;;8.17;90.43;97677.78;5092912;28;20488;-78
2022/04/13 01:14:16;;;;;;;13.40;6.50;;;;;;;8.19;92.12;97675.59;5094784;28;20044;-78
2022/04/13 01:16:42;;;;;;;17.45;6.88;;;;;;;8.17;91.65;97680.50;5094156;28;20052;-78
2022/04/13 01:19:13;;;;;;;16.92;6.70;;;;;;;8.11;91.11;97679.78;5093320;28;20155;-79
2022/04/13 01:21:52;;;;;;;14.38;6.00;;;;;;;8.06;93.52;97676.38;5090605;28;20048;-79
2022/04/13 01:24:20;;;;;;;17.70;6.85;;;;;;;7.86;100.00;97679.44;5092947;28;20281;-77
2022/04/13 01:26:47;;;;;;;12.70;6.68;;;;;;;7.80;100.00;97683.28;5093008;28;20086;-78
2022/04/13 01:29:14;;;;;;;15.02;6.13;;;;;;;7.58;100.00;97680.44;5088521;28;20128;-77
2022/04/13 01:31:41;;;;;;;14.50;5.63;;;;;;;7.49;100.00;97681.09;5090349;28;20044;-77
2022/04/13 01:34:08;;;;;;;13.90;6.30;;;;;;;7.41;100.00;97683.66;5092057;28;20052;-77
2022/04/13 01:36:36;;;;;;;16.42;6.85;;;;;;;7.34;100.00;97675.97;5089773;28;20087;-79
2022/04/13 01:39:04;;;;;;;13.73;6.00;;;;;;;7.33;100.00;97674.34;5091739;28;20055;-78
2022/04/13 01:41:31;;;;;;;17.27;6.18;;;;;;;7.27;100.00;97688.19;5091347;28;20055;-78
2022/04/13 01:43:58;;;;;;;14.57;5.72;;;;;;;7.23;100.00;97681.78;5090593;28;20077;-78
2022/04/13 01:46:24;;;;;;;10.13;4.95;;;;;;;7.16;100.00;97679.47;5091166;28;20135;-78
2022/04/13 01:48:51;;;;;;;17.05;5.82;;;;;;;7.24;100.00;97670.75;5091897;28;20092;-79
2022/04/13 01:51:20;;;;;;;13.13;5.55;;;;;;;7.22;100.00;97685.59;5089857;28;20078;-78
2022/04/13 01:53:50;;;;;;;15.90;5.70;;;;;;;7.33;100.00;97671.66;5093221;28;20052;-78
2022/04/13 01:56:18;;;;;;;15.52;6.20;;;;;;;7.36;100.00;97675.66;5092401;28;20040;-78
2022/04/13 01:58:44;;;;;;;13.05;5.95;;;;;;;7.44;100.00;97677.69;5091053;28;20059;-78
2022/04/13 02:01:11;;;;;;;12.85;6.10;;;;;;;7.45;100.00;97680.09;5090240;28;20052;-78
2022/04/13 02:03:40;;;;;;;16.00;6.03;;;;;;;7.52;100.00;97669.75;5091798;28;20573;-79
2022/04/13 02:06:06;;;;;;;17.23;6.10;;;;;;;7.58;100.00;97673.16;5078563;28;20044;-78
2022/04/13 02:08:33;;;;;;;17.60;6.80;;;;;;;7.60;100.00;97673.66;5091375;28;20052;-79
2022/04/13 02:11:00;;;;;;;14.27;5.95;;;;;;;7.59;100.00;97663.97;5091308;28;20531;-79
2022/04/13 02:13:27;;;;;;;14.20;6.18;;;;;;;7.62;100.00;97668.78;5092914;28;20581;-78
2022/04/13 02:15:53;;;;;;;14.57;6.57;;;;;;;7.63;100.00;97672.28;5099997;28;20048;-77
2022/04/13 02:18:20;;;;;;;14.82;6.20;;;;;;;7.55;100.00;97673.75;5104459;28;20056;-79
2022/04/13 02:20:47;;;;;;;16.05;6.65;;;;;;;7.52;100.00;97672.44;5109786;28;20078;-78
2022/04/13 02:23:13;;;;;;;12.57;5.93;;;;;;;7.45;100.00;97676.59;5107791;28;20051;-76
2022/04/13 02:25:40;;;;;;;17.30;6.68;;;;;;;7.41;100.00;97676.38;5102863;28;20055;-78
2022/04/13 02:28:07;;;;;;;16.73;6.55;;;;;;;7.36;100.00;97667.56;5091974;28;20090;-78
2022/04/13 02:30:33;;;;;;;15.70;6.53;;;;;;;7.28;100.00;97673.63;5093738;28;20278;-77
2022/04/13 02:33:01;;;;;;;13.43;6.90;;;;;;;7.15;100.00;97674.38;5094765;28;20105;-78
2022/04/13 02:35:29;;;;;;;15.23;6.75;;;;;;;7.08;100.00;97673.94;5095867;28;20491;-77
2022/04/13 02:37:56;;;;;;;13.68;6.22;;;;;;;7.05;100.00;97669.94;5095147;28;20040;-78
2022/04/13 02:40:22;;;;;;;14.25;6.70;;;;;;;6.99;100.00;97673.81;5093419;28;20052;-77
2022/04/13 02:42:49;;;;;;;15.13;7.13;;;;;;;6.82;100.00;97663.53;5089812;28;20102;-77
2022/04/13 02:45:15;;;;;;;15.70;6.60;;;;;;;6.70;100.00;97671.22;5091256;28;20091;-78
2022/04/13 02:47:42;;;;;;;16.05;6.28;;;;;;;-104.78;100.00;97672.72;5091620;28;20048;-77
2022/04/13 02:50:09;;;;;;;14.23;5.95;;;;;;;6.45;100.00;97674.22;5090492;28;20059;-78
2022/04/13 02:52:35;;;;;;;16.25;6.53;;;;;;;6.36;100.00;97677.81;5088432;28;20086;-77
2022/04/13 02:55:02;;;;;;;14.43;6.70;;;;;;;6.26;100.00;97673.38;5091636;28;20044;-78
2022/04/13 02:57:29;;;;;;;17.83;7.45;;;;;;;6.23;100.00;97672.06;5097752;28;20036;-78
2022/04/13 02:59:55;;;;;;;15.25;6.88;;;;;;;6.23;100.00;97671.25;5115445;28;20044;-78
2022/04/13 03:02:22;;;;;;;13.15;6.40;;;;;;;6.23;100.00;97668.56;5113935;28;20028;-78
2022/04/13 03:04:49;;;;;;;14.07;6.50;;;;;;;6.20;100.00;97667.25;5096252;28;20109;-77
2022/04/13 03:07:17;;;;;;;13.40;6.70;;;;;;;6.24;100.00;97670.16;5089283;28;20048;-78
2022/04/13 03:09:44;;;;;;;17.58;6.85;;;;;;;6.22;100.00;97669.63;5090954;28;20151;-77
2022/04/13 03:12:12;;;;;;;16.35;6.30;;;;;;;6.27;100.00;97670.38;5090222;28;20052;-77
2022/04/13 03:14:40;;;;;;;13.88;6.75;;;;;;;6.26;100.00;97671.50;5090642;28;20081;-78
2022/04/13 03:17:07;;;;;;;17.27;6.53;;;;;;;6.26;100.00;97678.75;5089841;28;20064;-78
2022/04/13 03:19:34;;;;;;;16.13;6.95;;;;;;;6.20;100.00;97678.00;5090802;28;20174;-77
2022/04/13 03:22:01;;;;;;;14.98;6.68;;;;;;;6.17;100.00;97675.88;5086919;28;20466;-78
2022/04/13 03:24:27;;;;;;;16.38;6.82;;;;;;;6.17;100.00;97677.75;5090339;28;20121;-78
2022/04/13 03:26:54;;;;;;;16.55;7.32;;;;;;;6.12;100.00;97673.25;5090304;28;20083;-78
2022/04/13 03:29:20;;;;;;;16.52;7.22;;;;;;;6.16;100.00;97678.84;5090341;28;20627;-77
2022/04/13 03:31:47;;;;;;;14.25;6.63;;;;;;;6.11;100.00;97678.91;5089716;28;20528;-78
2022/04/13 03:34:13;;;;;;;19.20;6.90;;;;;;;6.05;100.00;97685.41;5091939;28;20047;-78
2022/04/13 03:36:40;;;;;;;14.15;6.82;;;;;;;5.97;100.00;97675.28;5089781;28;20478;-78
2022/04/13 03:39:07;;;;;;;14.48;6.30;;;;;;;5.93;100.00;97677.75;5092346;28;20081;-79
2022/04/13 03:41:35;;;;;;;15.77;6.90;;;;;;;5.86;100.00;97673.81;5090476;28;20425;-79
2022/04/13 03:44:03;;;;;;;15.88;6.93;;;;;;;5.81;100.00;97668.44;5090100;28;20052;-77
2022/04/13 03:46:31;;;;;;;17.20;7.70;;;;;;;5.75;100.00;97689.16;5089441;28;20051;-76
2022/04/13 03:48:58;;;;;;;15.60;6.25;;;;;;;5.78;100.00;97680.53;5089912;28;20047;-76
2022/04/13 03:51:26;;;;;;;13.90;7.05;;;;;;;5.73;100.00;97679.78;5090230;28;20048;-75
2022/04/13 03:53:53;;;;;;;14.30;7.05;;;;;;;5.65;100.00;97694.63;5091041;28;20080;-79
2022/04/13 03:56:19;;;;;;;16.98;7.10;;;;;;;5.55;100.00;97692.00;5091452;28;20090;-78
2022/04/13 03:58:46;;;;;;;21.02;7.47;;;;;;;5.42;100.00;97693.44;5093284;28;20071;-77
2022/04/13 04:01:12;;;;;;;17.00;7.78;;;;;;;5.30;100.00;97686.84;5088960;28;20105;-77
2022/04/13 04:03:39;;;;;;;23.27;7.13;;;;;;;5.33;100.00;97691.66;5092980;28;20048;-77
2022/04/13 04:06:05;;;;;;;18.58;7.15;;;;;;;5.24;100.00;97685.28;5081180;28;20109;-77
2022/04/13 04:08:32;;;;;;;16.95;6.90;;;;;;;5.23;100.00;97689.03;5091133;28;20060;-77
2022/04/13 04:10:59;;;;;;;19.42;7.18;;;;;;;5.13;100.00;97684.56;5091730;28;20063;-77
2022/04/13 04:13:25;;;;;;;16.40;6.65;;;;;;;5.19;100.00;97693.38;5091895;28;20051;-77
2022/04/13 04:15:52;;;;;;;22.63;7.75;;;;;;;5.15;100.00;97684.25;5091021;28;20048;-77
2022/04/13 04:18:19;;;;;;;22.10;7.35;;;;;;;5.13;100.00;97703.34;5090760;28;20048;-77
2022/04/13 04:20:45;;;;;;;19.70;7.05;;;;;;;5.11;100.00;97696.66;5087218;28;20056;-77
2022/04/13 04:23:12;;;;;;;20.80;7.47;;;;;;;5.12;100.00;97699.03;5088960;28;20052;-76
2022/04/13 04:25:38;;;;;;;20.55;7.40;;;;;;;5.08;100.00;97700.69;5089868;28;20051;-76
2022/04/13 04:28:09;;;;;;;17.55;7.03;;;;;;;5.08;100.00;97694.50;5088200;28;20099;-77
2022/04/13 04:30:37;;;;;;;14.13;6.70;;;;;;;5.09;100.00;97680.81;5088300;28;20087;-78
2022/04/13 04:33:08;;;;;;;17.83;7.65;;;;;;;5.36;100.00;97696.47;5093312;28;20119;-79
2022/04/13 04:35:35;;;;;;;16.83;6.40;;;;;;;5.79;100.00;97700.94;5095297;28;20097;-78
2022/04/13 04:38:02;;;;;;;19.67;6.72;;;;;;;6.45;100.00;97694.94;5096171;28;20070;-80
2022/04/13 04:40:29;;;;;;;18.67;6.75;;;;;;;6.78;100.00;97699.38;5095671;28;20492;-80
2022/04/13 04:42:58;;;;;;;17.75;6.53;;;;;;;7.05;100.00;97691.47;5112568;28;20028;-78
2022/04/13 04:45:25;;;;;;;16.70;6.65;;;;;;;7.10;100.00;97694.06;5111155;28;20048;-80
2022/04/13 04:47:53;;;;;;;17.15;6.78;;;;;;;7.07;100.00;97702.72;5097291;28;20101;-78
2022/04/13 04:50:23;;;;;;;22.95;7.40;;;;;;;7.27;100.00;97704.34;5096125;28;20052;-79
2022/04/13 04:52:50;;;;;;;17.23;6.28;;;;;;;7.14;100.00;97689.72;5094019;28;20052;-78
2022/04/13 04:55:18;;;;;;;19.00;6.85;;;;;;;7.14;100.00;97699.69;5095094;28;20063;-77
2022/04/13 04:57:45;;;;;;;16.55;6.35;;;;;;;7.26;100.00;97694.66;5094511;28;20052;-77
2022/04/13 05:00:14;;;;;;;15.13;6.45;;;;;;;7.27;100.00;97710.53;5092950;28;20048;-76
2022/04/13 05:02:41;;;;;;;17.13;7.13;;;;;;;7.42;100.00;97706.81;5091843;28;20516;-78
2022/04/13 05:05:08;;;;;;;19.77;6.80;;;;;;;7.51;100.00;97710.44;5093516;28;20496;-78
2022/04/13 05:07:34;;;;;;;19.70;6.43;;;;;;;7.53;100.00;97709.06;5087618;28;20059;-77
2022/04/13 05:10:01;;;;;;;15.10;6.07;;;;;;;7.50;100.00;97708.84;5090925;28;20071;-77
2022/04/13 05:12:28;;;;;;;19.48;6.43;;;;;;;7.50;100.00;97715.03;5090386;28;20137;-77
2022/04/13 05:14:55;;;;;;;19.30;6.57;;;;;;;7.57;100.00;97716.53;5090704;28;20075;-77
2022/04/13 05:17:23;;;;;;;17.00;6.70;;;;;;;7.54;100.00;97712.53;5090648;28;20052;-77
2022/04/13 05:19:50;;;;;;;18.15;6.53;;;;;;;7.71;100.00;97712.84;5095333;28;20072;-78
2022/04/13 05:22:17;;;;;;;16.08;7.32;;;;;;;7.81;100.00;97715.34;5088947;28;20052;-78
2022/04/13 05:24:44;;;;;;;17.83;6.90;;;;;;;7.96;100.00;97723.19;5081425;28;20043;-78
2022/04/13 05:27:10;;;;;;;16.00;6.93;;;;;;;8.05;100.00;97726.78;5095681;28;20047;-78
2022/04/13 05:29:37;;;;;;;17.42;7.07;;;;;;;8.24;100.00;97718.66;5092407;28;20066;-78
2022/04/13 05:32:06;;;;;;;15.88;6.97;;;;;;;8.34;100.00;97721.19;5099372;28;20086;-78
2022/04/13 05:34:33;;;;;;;17.48;6.97;;;;;;;8.49;100.00;97720.91;5104955;28;20044;-78
2022/04/13 05:37:00;;;;;;;15.02;7.18;;;;;;;8.65;100.00;97726.78;5092128;28;20121;-79
2022/04/13 05:39:27;;;;;;;15.65;6.22;;;;;;;8.77;100.00;97724.41;5092776;28;20430;-78
2022/04/13 05:41:53;;;;;;;16.33;6.28;;;;;;;8.93;99.49;97733.00;5094993;28;20052;-79
2022/04/13 05:44:20;;;;;;;16.42;6.78;;;;;;;9.06;96.58;97726.78;5086996;28;20052;-78
2022/04/13 05:46:49;;;;;;;20.20;7.30;;;;;;;9.19;98.39;97721.34;5079295;28;20066;-78
2022/04/13 05:49:16;;;;;;;17.15;6.70;;;;;;;9.30;94.62;97719.22;5089167;28;20581;-77
2022/04/13 05:51:43;;;;;;;16.98;6.20;;;;;;;9.39;93.84;97726.28;5090808;28;20515;-79
2022/04/13 05:54:11;;;;;;;17.92;6.70;;;;;;;9.52;92.12;97734.69;5090900;28;20044;-77
2022/04/13 05:56:38;;;;;;;18.05;6.43;;;;;;;9.60;89.45;97731.25;5092539;28;20458;-78
2022/04/13 05:59:05;;;;;;;15.85;6.68;;;;;;;9.75;88.46;97730.88;5090849;28;20113;-79
2022/04/13 06:01:31;;;;;;;19.27;6.97;;;;;;;9.84;85.37;97737.16;5095862;28;20067;-78
2022/04/13 06:03:58;;;;;;;15.60;6.70;;;;;;;9.91;84.71;97730.19;5097231;28;20115;-77
2022/04/13 06:06:28;;;;;;;17.73;7.07;;;;;;;9.99;82.36;97729.47;5090002;28;20044;-78
2022/04/13 06:08:54;;;;;;;19.50;7.28;;;;;;;10.15;81.29;97735.31;5093577;28;20436;-79
2022/04/13 06:11:24;;;;;;;14.07;6.88;;;;;;;10.24;81.74;97740.78;5072860;28;20052;-80
2022/04/13 06:13:50;;;;;;;18.27;6.65;;;;;;;10.42;80.03;97745.19;5073285;28;20131;-81
2022/04/13 06:16:17;;;;;;;15.63;6.47;;;;;;;10.52;76.22;97737.59;5092452;28;20048;-79
2022/04/13 06:18:43;;;;;;;17.33;6.57;;;;;;;10.77;75.31;97749.63;5094778;28;20109;-78
2022/04/13 06:21:10;;;;;;;15.30;6.97;;;;;;;10.83;74.97;97732.16;5093990;28;20644;-79
2022/04/13 06:23:39;;;;;;;20.00;6.53;;;;;;;11.02;72.92;97748.91;5096003;28;20047;-80
2022/04/13 06:26:05;;;;;;;15.30;6.68;;;;;;;11.15;71.01;97748.00;5096281;28;20070;-79
2022/04/13 06:28:32;;;;;;;15.80;6.32;;;;;;;11.39;69.95;97752.97;5092259;28;20052;-78
2022/04/13 06:30:58;;;;;;;12.50;6.25;;;;;;;11.52;69.00;97743.91;5111406;28;20085;-81
2022/04/13 06:33:25;;;;;;;17.80;6.30;;;;;;;11.71;68.40;97751.78;5114652;28;20054;-80
2022/04/13 06:35:51;;;;;;;15.40;6.38;;;;;;;11.97;65.53;97747.13;5109968;28;20128;-79
2022/04/13 06:38:18;;;;;;;15.35;6.50;;;;;;;12.11;64.56;97742.31;5092314;28;20542;-78
2022/04/13 06:40:44;;;;;;;14.10;6.55;;;;;;;12.30;62.79;97747.41;5091618;28;20566;-77
2022/04/13 06:43:11;;;;;;;14.35;5.45;;;;;;;12.49;61.13;97748.63;5092408;28;20579;-80
2022/04/13 06:45:37;;;;;;;13.20;6.18;;;;;;;12.71;59.99;97754.94;5094110;28;20052;-79
2022/04/13 06:48:04;;;;;;;13.15;5.75;;;;;;;12.86;58.81;97757.91;5097863;28;20044;-78
2022/04/13 06:50:34;;;;;;;13.75;5.88;;;;;;;13.10;58.68;97757.34;5095631;28;20052;-79
2022/04/13 06:53:00;;;;;;;12.32;5.97;;;;;;;13.24;57.54;97762.56;5094113;28;20048;-79
2022/04/13 06:55:27;;;;;;;13.48;6.07;;;;;;;13.46;56.41;97760.34;5100681;28;20068;-79
2022/04/13 06:57:55;;;;;;;18.45;5.90;;;;;;;13.68;55.61;97770.88;5098124;28;20064;-79
2022/04/13 07:00:22;;;;;;;18.60;5.80;;;;;;;13.88;55.09;97763.06;5099558;28;20058;-80
2022/04/13 07:02:48;;;;;;;13.60;5.75;;;;;;;14.01;54.83;97762.81;5094066;28;20079;-78
2022/04/13 07:05:35;;;;;;;17.38;5.38;;;;;;;14.15;54.01;97762.50;5107692;28;20067;-80
2022/04/13 07:08:05;;;;;;;11.90;5.05;;;;;;;14.30;53.94;97767.31;5099339;28;20047;-79
2022/04/13 07:10:32;;;;;;;12.48;5.70;;;;;;;14.45;52.21;97755.84;5093433;28;20074;-77
2022/04/13 07:13:04;;;;;;;12.68;6.05;;;;;;;14.60;52.19;97757.91;5094346;28;20537;-78
2022/04/13 07:15:31;;;;;;;11.75;5.60;;;;;;;14.66;51.97;97767.44;5093156;28;20056;-77
2022/04/13 07:17:58;;;;;;;14.38;7.72;;;;;;;14.80;51.92;97765.22;5100081;28;20047;-80
2022/04/13 07:20:25;;;;;;;13.02;5.47;;;;;;;15.11;52.28;97763.84;5109863;28;20048;-80
2022/04/13 07:22:53;;;;;;;10.18;5.30;;;;;;;15.22;51.55;97773.19;5112274;28;20052;-81
2022/04/13 07:25:21;;;;;;;11.48;4.95;;;;;;;15.17;51.94;97773.41;5114827;28;20040;-81
2022/04/13 07:27:49;;;;;;;10.82;4.90;;;;;;;15.30;50.85;97778.53;5098542;28;20143;-80
2022/04/13 07:30:16;;;;;;;12.88;5.45;;;;;;;15.35;50.75;97774.78;5093614;28;20454;-79
2022/04/13 07:32:47;;;;;;;10.00;5.03;;;;;;;15.38;51.50;97763.19;5089970;28;20052;-79
2022/04/13 07:35:14;;;;;;;10.20;4.80;;;;;;;15.55;50.09;97779.31;5090339;28;20059;-78
2022/04/13 07:37:41;;;;;;;12.70;5.05;;;;;;;15.81;51.58;97778.94;5094046;28;20051;-77
2022/04/13 07:40:11;;;;;;;10.15;4.85;;;;;;;15.78;49.66;97782.34;5091343;28;20090;-77
2022/04/13 07:42:38;;;;;;;11.45;5.15;;;;;;;15.87;49.71;97786.53;5091629;28;20071;-81
2022/04/13 07:45:06;;;;;;;8.80;4.60;;;;;;;15.96;50.46;97787.19;5111743;28;20092;-80
2022/04/13 07:47:33;;;;;;;10.55;4.68;;;;;;;16.15;49.80;97789.31;5104704;28;20450;-77
2022/04/13 07:49:59;;;;;;;12.93;4.90;;;;;;;16.04;49.42;97785.47;5090519;28;20060;-80
2022/04/13 07:52:26;;;;;;;14.88;4.80;;;;;;;16.07;49.85;97785.56;5089348;28;20067;-79
2022/04/13 07:54:52;;;;;;;10.20;4.28;;;;;;;16.13;50.28;97777.94;5092444;28;20468;-80
2022/04/13 07:57:19;;;;;;;12.07;4.60;;;;;;;16.21;49.99;97788.69;5091109;28;20040;-78
2022/04/13 07:59:46;;;;;;;10.35;5.20;;;;;;;16.34;50.53;97794.91;5090196;28;20052;-78
2022/04/13 08:02:20;;;;;;;12.48;5.20;;;;;;;16.54;49.18;97784.94;5104573;28;20055;-79
2022/04/13 08:04:47;;;;;;;9.30;4.85;;;;;;;16.60;49.86;97791.72;5095075;28;20040;-79
2022/04/13 08:07:14;;;;;;;17.65;5.78;;;;;;;16.64;48.76;97792.63;5093100;28;20044;-80
2022/04/13 08:09:41;;;;;;;11.07;5.40;;;;;;;16.93;49.13;97786.75;5093982;28;20059;-79
2022/04/13 08:12:08;;;;;;;9.98;4.93;;;;;;;16.88;48.65;97783.50;5094012;28;20111;-79
2022/04/13 08:14:37;;;;;;;15.13;5.60;;;;;;;16.91;49.13;97775.38;5096171;28;20048;-79
2022/04/13 08:17:05;;;;;;;10.30;4.88;;;;;;;17.24;47.98;97800.44;5090542;28;20048;-79
2022/04/13 08:19:31;;;;;;;9.95;5.60;;;;;;;17.43;47.87;97792.31;5094763;28;20548;-79
2022/04/13 08:21:58;;;;;;;12.45;5.03;;;;;;;17.51;48.01;97796.00;5096033;28;20539;-79
2022/04/13 08:24:25;;;;;;;10.13;4.80;;;;;;;17.68;47.44;97798.38;5097213;28;20100;-79
2022/04/13 08:26:51;;;;;;;9.77;4.57;;;;;;;17.79;46.60;97799.41;5095960;28;20215;-79
2022/04/13 08:29:19;;;;;;;12.85;5.18;;;;;;;18.00;45.88;97796.34;5095577;28;20395;-79
2022/04/13 08:31:45;;;;;;;9.75;5.40;;;;;;;18.26;45.55;97801.97;5094513;28;20055;-79
2022/04/13 08:34:12;;;;;;;8.98;4.07;;;;;;;18.21;42.79;97799.53;5094999;28;20044;-79
2022/04/13 08:36:41;;;;;;;11.75;4.32;;;;;;;18.22;42.92;97806.56;5091366;28;20083;-80
2022/04/13 08:39:14;;;;;;;10.98;4.97;;;;;;;18.41;43.68;97801.09;5080059;28;20048;-79
2022/04/13 08:41:51;;;;;;;12.35;5.75;;;;;;;18.43;42.96;97796.06;5075278;28;20052;-79
2022/04/13 08:44:24;;;;;;;9.00;4.20;;;;;;;18.75;42.94;97798.63;5077096;28;20079;-79
2022/04/13 08:46:55;;;;;;;7.22;3.83;;;;;;;18.77;42.33;97799.06;5076690;28;20090;-79
2022/04/13 08:49:23;;;;;;;7.40;3.97;;;;;;;18.83;41.67;97797.63;5075405;28;20048;-78
2022/04/13 08:52:02;;;;;;;12.63;4.40;;;;;;;18.82;41.22;97799.56;5073282;28;20083;-79
2022/04/13 08:54:31;;;;;;;8.60;4.10;;;;;;;18.76;42.50;97792.81;5081912;28;20473;-79
2022/04/13 08:56:58;;;;;;;16.88;4.47;;;;;;;19.14;41.40;97789.94;5083822;28;20049;-79
2022/04/13 09:00:02;;;;;;;12.93;4.03;;;;;;;19.25;42.25;97801.09;5084242;28;20120;-79
2022/04/13 09:02:47;;;;;;;15.60;4.32;;;;;;;19.54;42.22;97803.16;5084028;28;20052;-80
2022/04/13 09:05:16;;;;;;;10.98;4.47;;;;;;;19.58;41.48;97800.47;5095692;28;20167;-79
2022/04/13 09:07:46;;;;;;;10.27;4.53;;;;;;;19.12;42.34;97795.00;5098837;28;20054;-80
2022/04/13 09:10:23;;;;;;;8.20;4.18;;;;;;;19.12;42.53;97797.72;5106169;28;20052;-80
2022/04/13 09:12:51;;;;;;;9.35;4.55;;;;;;;19.58;42.20;97792.22;5103273;28;20086;-79
2022/04/13 09:15:20;;;;;;;9.05;4.15;;;;;;;19.69;42.21;97796.72;5104235;28;20113;-80
2022/04/13 09:17:47;;;;;;;12.80;4.00;;;;;;;19.87;41.89;97807.97;5099847;28;20048;-79
2022/04/13 09:20:15;;;;;;;11.98;4.43;;;;;;;19.89;40.72;97805.66;5105190;28;20078;-80
2022/04/13 09:22:43;;;;;;;9.02;4.22;;;;;;;20.31;40.54;97803.47;5096963;28;20163;-80
2022/04/13 09:25:10;;;;;;;8.55;4.30;;;;;;;20.45;40.74;97806.41;5087156;28;20053;-80
2022/04/13 09:27:38;;;;;;;9.38;4.38;;;;;;;20.63;39.90;97798.34;5105925;28;20509;-80
2022/04/13 09:30:06;;;;;;;19.52;5.00;;;;;;;20.46;39.97;97801.69;5099426;28;20079;-80
2022/04/13 09:32:34;;;;;;;11.77;4.10;;;;;;;20.83;40.13;97807.19;5095965;28;20059;-79
2022/04/13 09:35:02;;;;;;;8.20;3.78;;;;;;;20.92;40.36;97799.44;5085954;28;20059;-80
2022/04/13 09:37:29;;;;;;;8.73;4.05;;;;;;;20.87;41.00;97800.59;5090596;28;20097;-81
2022/04/13 09:39:56;;;;;;;10.18;3.97;;;;;;;21.41;40.70;97791.66;5095665;28;20056;-77
2022/04/13 09:42:26;;;;;;;7.35;3.92;;;;;;;21.56;38.30;97790.59;5090977;28;20136;-79
2022/04/13 09:44:56;;;;;;;6.65;3.63;;;;;;;21.11;37.95;97800.03;5096977;28;20062;-79
2022/04/13 09:47:29;;;;;;;9.75;3.88;;;;;;;21.20;39.13;97790.69;5102084;28;20052;-79
2022/04/13 09:49:56;;;;;;;6.85;3.42;;;;;;;21.42;39.26;97797.97;5101916;28;20113;-80
2022/04/13 09:52:32;;;;;;;6.43;3.65;;;;;;;21.58;37.42;97795.69;5099088;28;20093;-80
2022/04/13 09:54:59;;;;;;;5.53;3.30;;;;;;;21.89;37.97;97791.59;5101871;28;20427;-80
2022/04/13 09:57:26;;;;;;;10.60;3.92;;;;;;;22.16;36.76;97803.97;5095392;28;20051;-81
2022/04/13 09:59:57;;;;;;;6.07;3.25;;;;;;;21.72;37.58;97798.56;5106163;28;20031;-81
2022/04/13 10:02:35;;;;;;;7.63;3.80;;;;;;;22.25;36.93;97794.16;5102746;28;20043;-82
2022/04/13 10:05:06;;;;;;;7.22;3.03;;;;;;;22.53;35.65;97806.50;5104843;28;20048;-80
2022/04/13 10:07:34;;;;;;;8.30;2.72;;;;;;;23.13;35.31;97792.84;5094437;28;20113;-80
2022/04/13 10:10:02;;;;;;;4.75;2.75;;;;;;;24.21;34.42;97793.19;5105135;28;20063;-80
2022/04/13 10:12:46;;;;;;;6.30;2.80;;;;;;;24.32;33.36;97802.22;5101547;28;20052;-80
2022/04/13 10:15:13;;;;;;;5.45;2.67;;;;;;;24.51;33.48;97802.56;5103080;28;20048;-80
2022/04/13 10:17:40;;;;;;;9.68;2.65;;;;;;;25.56;32.70;97797.56;5096578;28;20070;-81
2022/04/13 10:20:07;;;;;;;5.90;2.50;;;;;;;26.49;31.40;97807.31;5097315;28;20048;-80
2022/04/13 10:22:34;;;;;;;5.90;2.30;;;;;;;27.06;29.50;97790.69;5091742;28;20048;-80
2022/04/13 10:25:20;;;;;;;3.67;2.30;;;;;;;27.35;29.86;97788.25;5094752;28;20105;-80
2022/04/13 10:27:58;;;;;;;3.38;2.40;;;;;;;26.53;29.43;97791.38;5105318;28;20298;-80
2022/04/13 10:30:26;;;;;;;6.80;2.55;;;;;;;25.34;30.73;97779.50;5104682;28;20059;-80
2022/04/13 10:33:17;;;;;;;6.68;2.30;;;;;;;26.46;31.33;97796.22;5105316;28;20153;-79
2022/04/13 10:35:45;;;;;;;6.28;2.83;;;;;;;26.82;29.73;97775.13;5105548;28;20044;-80
2022/04/13 10:38:12;;;;;;;6.00;2.60;;;;;;;26.87;29.92;97773.88;5103026;28;20081;-80
2022/04/13 10:40:42;;;;;;;5.82;2.13;;;;;;;27.25;29.63;97780.88;5102666;28;20139;-79
2022/04/13 10:43:13;;;;;;;5.78;2.50;;;;;;;28.57;27.94;97785.63;5097739;28;20098;-80
2022/04/13 10:45:45;;;;;;;3.70;2.00;;;;;;;27.02;27.61;97778.03;5103974;28;20066;-80
2022/04/13 10:48:21;;;;;;;6.13;2.20;;;;;;;25.02;30.10;97773.41;5105722;28;20279;-83
2022/04/13 10:50:55;;;;;;;5.38;2.10;;;;;;;26.72;30.46;97778.03;5113076;28;20070;-81
2022/04/13 10:53:28;;;;;;;4.68;2.38;;;;;;;27.30;27.89;97777.59;5113950;28;20090;-78
2022/04/13 10:55:59;;;;;;;5.15;2.17;;;;;;;27.08;28.51;97774.34;5107623;28;20512;-80
2022/04/13 10:58:44;;;;;;;5.55;2.00;;;;;;;27.98;27.00;97771.69;5102281;28;20048;-80
2022/04/13 11:01:13;;;;;;;7.90;1.98;;;;;;;28.12;25.72;97769.44;5100179;28;20044;-82
2022/04/13 11:03:41;;;;;;;3.92;1.70;;;;;;;27.25;27.50;97766.16;5103145;28;20052;-80
2022/04/13 11:06:10;;;;;;;3.30;2.00;;;;;;;27.29;29.05;97767.69;5091742;28;20051;-80
2022/04/13 11:08:46;;;;;;;4.10;2.50;;;;;;;26.70;27.72;97775.69;5100144;28;20040;-80
2022/04/13 11:11:28;;;;;;;4.30;1.92;;;;;;;25.60;29.81;97762.28;5099746;28;20055;-80
2022/04/13 11:13:55;;;;;;;6.00;2.10;;;;;;;26.81;27.45;97765.25;5100160;28;20048;-80
2022/04/13 11:16:27;;;;;;;5.05;2.15;;;;;;;25.74;28.83;97777.97;5100054;28;20048;-79
2022/04/13 11:19:06;;;;;;;4.25;1.88;;;;;;;24.28;28.51;97785.66;5105421;28;20511;-82
2022/04/13 11:21:36;;;;;;;7.82;2.30;;;;;;;25.01;28.84;97755.97;5099976;28;20462;-78
2022/04/13 11:24:03;;;;;;;5.78;2.10;;;;;;;24.62;30.05;97777.59;5102729;28;20055;-80
2022/04/13 11:26:36;;;;;;;6.68;2.30;;;;;;;25.00;30.79;97773.81;5104816;28;20048;-84
2022/04/13 11:29:18;;;;;;;6.35;1.98;;;;;;;24.34;32.28;97781.25;5106977;28;20036;-82
2022/04/13 11:31:59;;;;;;;2.97;1.85;;;;;;;23.93;31.79;97753.31;5103750;28;20075;-81
2022/04/13 11:34:57;;;;;;;4.22;1.92;;;;;;;24.11;31.22;97772.66;5107364;28;20083;-81